Time;durP1;ratioP1;P1;durP2;ratioP2;P2;SDS_P1;SDS_P2;PMS_P1;PMS_P2;Temp;Humidity;BMP_temperature;BMP_pressure;BME280_temperature;BME280_humidity;BME280_pressure;Samples;Min_cycle;Max_cycle;Signal;HPM_P1;HPM_P2
2021/10/22 00:01:21;;;;;;;4.18;0.70;;;20.20;63.90;;;;;;4920141;28;87111;-75
2021/10/22 00:03:47;;;;;;;2.72;0.90;;;20.20;63.90;;;;;;4933705;28;87842;-75
2021/10/22 00:06:18;;;;;;;1.42;0.70;;;20.20;63.90;;;;;;4934071;28;87102;-75
2021/10/22 00:08:44;;;;;;;1.73;0.47;;;20.10;63.90;;;;;;4931440;28;87409;-74
2021/10/22 00:11:15;;;;;;;2.22;0.60;;;20.10;63.90;;;;;;4932205;28;86779;-75
2021/10/22 00:13:42;;;;;;;1.15;0.50;;;20.10;64.00;;;;;;4919355;28;89029;-74
2021/10/22 00:16:10;;;;;;;2.17;0.65;;;20.10;64.00;;;;;;4918108;28;88176;-73
2021/10/22 00:18:39;;;;;;;6.32;0.80;;;20.10;64.00;;;;;;4938733;28;88121;-73
2021/10/22 00:21:08;;;;;;;1.45;0.57;;;20.10;64.10;;;;;;4936750;28;87570;-77
2021/10/22 00:23:38;;;;;;;0.90;0.50;;;20.10;64.10;;;;;;4932610;28;87644;-72
2021/10/22 00:26:06;;;;;;;2.95;0.88;;;20.10;64.10;;;;;;4934450;28;88603;-74
2021/10/22 00:28:32;;;;;;;5.82;0.73;;;20.10;64.10;;;;;;4936563;28;87557;-73
2021/10/22 00:31:03;;;;;;;3.47;0.80;;;20.10;64.10;;;;;;4934493;28;87097;-73
2021/10/22 00:33:52;;;;;;;1.92;0.70;;;20.00;64.10;;;;;;4927676;28;87109;-76
2021/10/22 00:36:18;;;;;;;2.85;0.88;;;20.10;64.20;;;;;;4915636;28;88720;-73
2021/10/22 00:38:46;;;;;;;2.47;0.70;;;20.10;64.20;;;;;;4933491;28;87380;-73
2021/10/22 00:41:11;;;;;;;1.02;0.60;;;20.00;64.20;;;;;;4919451;28;87216;-73
2021/10/22 00:43:38;;;;;;;4.80;0.77;;;20.10;64.20;;;;;;4931590;28;89715;-73
2021/10/22 00:46:03;;;;;;;1.83;0.55;;;20.00;64.20;;;;;;4933781;28;88307;-74
2021/10/22 00:48:29;;;;;;;3.72;0.80;;;20.10;64.30;;;;;;4931682;28;87446;-78
2021/10/22 00:50:59;;;;;;;3.58;0.70;;;20.00;64.20;;;;;;4937542;28;87758;-73
2021/10/22 00:53:36;;;;;;;1.77;0.55;;;20.00;64.20;;;;;;4935039;28;87796;-74
2021/10/22 00:56:09;;;;;;;1.50;0.50;;;20.00;64.30;;;;;;4930668;28;87013;-73
2021/10/22 00:58:37;;;;;;;2.50;0.80;;;20.00;64.30;;;;;;4932142;28;88662;-72
2021/10/22 01:01:06;;;;;;;1.60;0.50;;;20.00;64.30;;;;;;4934504;28;87027;-73
2021/10/22 01:03:34;;;;;;;2.28;0.70;;;19.90;64.20;;;;;;4930237;28;88796;-73
2021/10/22 01:06:03;;;;;;;2.88;0.68;;;20.00;64.30;;;;;;4917514;28;88346;-73
2021/10/22 01:08:31;;;;;;;1.95;0.50;;;19.90;64.30;;;;;;4916994;28;88425;-78
2021/10/22 01:10:58;;;;;;;3.65;0.77;;;19.90;64.30;;;;;;4922797;28;87457;-73
2021/10/22 01:13:35;;;;;;;2.28;0.50;;;19.90;64.30;;;;;;4911135;28;87900;-72
2021/10/22 01:16:01;;;;;;;1.77;0.90;;;19.90;64.30;;;;;;4903012;28;90935;-72
2021/10/22 01:18:29;;;;;;;1.58;0.57;;;19.90;64.30;;;;;;4916368;28;87082;-73
2021/10/22 01:21:05;;;;;;;1.85;0.50;;;19.90;64.40;;;;;;4924495;28;87668;-72
2021/10/22 01:23:33;;;;;;;1.38;0.60;;;19.90;64.40;;;;;;4924806;28;87679;-72
2021/10/22 01:26:00;;;;;;;2.03;0.50;;;19.90;64.40;;;;;;4925516;28;88372;-72
2021/10/22 01:28:27;;;;;;;5.07;0.80;;;19.90;64.50;;;;;;4924684;28;87381;-73
2021/10/22 01:30:56;;;;;;;1.85;0.60;;;19.90;65.00;;;;;;4923052;28;87389;-72
2021/10/22 01:33:27;;;;;;;2.97;0.70;;;19.80;65.00;;;;;;4928003;28;89648;-72
2021/10/22 01:35:54;;;;;;;2.75;0.73;;;19.90;64.50;;;;;;4927107;28;89391;-75
2021/10/22 01:38:23;;;;;;;2.17;0.60;;;19.90;64.50;;;;;;4928952;28;87720;-73
2021/10/22 01:40:54;;;;;;;3.58;0.60;;;19.80;64.50;;;;;;4925646;28;87868;-73
2021/10/22 01:43:22;;;;;;;3.58;0.70;;;19.80;64.50;;;;;;4912663;28;90298;-73
2021/10/22 01:45:55;;;;;;;1.02;0.50;;;19.80;65.00;;;;;;4926809;28;88481;-72
2021/10/22 01:48:21;;;;;;;1.52;0.52;;;19.80;64.50;;;;;;4926820;28;87736;-73
2021/10/22 01:50:47;;;;;;;1.90;0.50;;;19.80;64.50;;;;;;4925881;28;86466;-74
2021/10/22 01:53:14;;;;;;;1.70;0.60;;;19.80;65.10;;;;;;4926260;28;87171;-72
2021/10/22 01:55:41;;;;;;;1.00;0.40;;;19.80;64.50;;;;;;4934365;28;87313;-73
2021/10/22 01:58:10;;;;;;;2.13;0.70;;;19.80;64.50;;;;;;4926348;28;88597;-72
2021/10/22 02:00:39;;;;;;;3.45;0.70;;;19.80;64.50;;;;;;4930402;28;88120;-73
2021/10/22 02:03:06;;;;;;;1.17;0.60;;;19.70;64.60;;;;;;4913244;28;87922;-74
2021/10/22 02:05:33;;;;;;;3.22;1.05;;;19.70;64.60;;;;;;4906713;28;90537;-73
2021/10/22 02:08:03;;;;;;;1.60;0.77;;;19.70;64.60;;;;;;4913816;28;87086;-73
2021/10/22 02:10:29;;;;;;;3.50;0.68;;;19.70;65.10;;;;;;4934797;28;87328;-72
2021/10/22 02:12:57;;;;;;;1.83;0.73;;;19.70;64.90;;;;;;4935494;28;88507;-72
2021/10/22 02:15:23;;;;;;;1.33;0.70;;;19.70;65.20;;;;;;4935485;28;87477;-75
2021/10/22 02:17:50;;;;;;;5.75;0.77;;;19.70;64.60;;;;;;4935948;28;87075;-72
2021/10/22 02:20:18;;;;;;;0.95;0.43;;;19.70;64.60;;;;;;4917830;28;88073;-73
2021/10/22 02:22:44;;;;;;;1.55;0.57;;;19.70;64.70;;;;;;4928208;28;89024;-73
2021/10/22 02:25:09;;;;;;;9.63;0.88;;;19.70;64.70;;;;;;4910087;28;88401;-76
2021/10/22 02:27:36;;;;;;;2.20;0.40;;;19.70;65.20;;;;;;4937145;28;87566;-72
2021/10/22 02:30:05;;;;;;;2.78;0.50;;;19.60;65.20;;;;;;4938460;28;87405;-73
2021/10/22 02:32:31;;;;;;;1.35;0.57;;;19.70;65.30;;;;;;4937505;28;87615;-73
2021/10/22 02:35:04;;;;;;;2.95;0.85;;;19.60;64.70;;;;;;4938309;28;88098;-72
2021/10/22 02:37:37;;;;;;;3.57;0.60;;;19.60;65.20;;;;;;4937947;28;87468;-75
2021/10/22 02:40:05;;;;;;;1.42;0.50;;;19.60;64.70;;;;;;4944996;28;87247;-74
2021/10/22 02:42:36;;;;;;;2.30;1.13;;;19.60;64.70;;;;;;4915972;28;87737;-73
2021/10/22 02:45:08;;;;;;;1.98;0.50;;;19.60;64.70;;;;;;4941592;28;87373;-71
2021/10/22 02:47:35;;;;;;;0.95;0.47;;;19.60;64.70;;;;;;4942324;28;87809;-76
2021/10/22 02:50:01;;;;;;;2.30;0.52;;;19.60;64.70;;;;;;4929277;28;87685;-76
2021/10/22 02:52:28;;;;;;;1.05;0.40;;;19.60;64.70;;;;;;4928432;28;86923;-75
2021/10/22 02:54:54;;;;;;;2.85;0.77;;;19.60;64.70;;;;;;4946816;28;87412;-77
2021/10/22 02:57:28;;;;;;;2.17;0.70;;;19.60;64.70;;;;;;4948715;28;87755;-73
2021/10/22 02:59:54;;;;;;;1.70;0.68;;;19.50;64.70;;;;;;4952931;28;87162;-77
2021/10/22 03:02:21;;;;;;;2.08;0.52;;;19.50;64.70;;;;;;4950064;28;87864;-73
2021/10/22 03:04:56;;;;;;;1.20;0.55;;;19.60;64.80;;;;;;4945351;28;86378;-77
2021/10/22 03:07:25;;;;;;;1.88;0.50;;;19.50;64.70;;;;;;4947144;28;87171;-78
2021/10/22 03:09:57;;;;;;;1.73;0.55;;;19.50;64.70;;;;;;4947910;28;87940;-72
2021/10/22 03:12:27;;;;;;;1.95;0.73;;;19.50;64.70;;;;;;4942245;28;89894;-73
2021/10/22 03:14:56;;;;;;;2.85;0.60;;;19.50;64.80;;;;;;4939972;28;87265;-74
2021/10/22 03:17:30;;;;;;;0.70;0.40;;;19.50;64.80;;;;;;4929211;28;87476;-73
2021/10/22 03:20:01;;;;;;;1.48;0.30;;;19.50;64.70;;;;;;4945902;28;87458;-74
2021/10/22 03:22:35;;;;;;;1.95;0.60;;;19.50;64.80;;;;;;4946080;28;87875;-75
2021/10/22 03:25:11;;;;;;;1.75;0.65;;;19.50;64.80;;;;;;4942671;28;87027;-73
2021/10/22 03:27:43;;;;;;;1.63;0.68;;;19.50;64.80;;;;;;4929694;28;87570;-75
2021/10/22 03:30:18;;;;;;;1.30;0.40;;;19.50;64.70;;;;;;4941311;28;86269;-77
2021/10/22 03:32:44;;;;;;;2.95;0.70;;;19.50;64.70;;;;;;4934264;28;88749;-73
2021/10/22 03:35:13;;;;;;;1.83;0.50;;;19.50;64.80;;;;;;4918265;28;87293;-73
2021/10/22 03:38:00;;;;;;;1.25;0.45;;;19.50;64.70;;;;;;4926628;28;88430;-72
2021/10/22 03:40:31;;;;;;;1.85;0.50;;;19.40;64.70;;;;;;4910251;28;87183;-73
2021/10/22 03:42:57;;;;;;;1.50;0.70;;;19.50;64.80;;;;;;4930781;28;87575;-76
2021/10/22 03:45:25;;;;;;;1.95;0.57;;;19.50;64.80;;;;;;4927707;28;87646;-72
2021/10/22 03:47:54;;;;;;;2.88;0.50;;;19.40;64.70;;;;;;4924129;28;88084;-75
2021/10/22 03:50:25;;;;;;;1.17;0.60;;;19.40;64.70;;;;;;4910609;28;87216;-73
2021/10/22 03:52:53;;;;;;;2.17;0.68;;;19.40;64.70;;;;;;4924347;28;87742;-73
2021/10/22 03:55:20;;;;;;;0.95;0.60;;;19.40;64.70;;;;;;4922790;28;88592;-72
2021/10/22 03:57:45;;;;;;;1.05;0.50;;;19.40;64.70;;;;;;4933783;28;87936;-74
2021/10/22 04:00:11;;;;;;;1.73;0.52;;;19.40;64.70;;;;;;4909913;28;87842;-72
2021/10/22 04:02:40;;;;;;;0.98;0.30;;;19.40;64.70;;;;;;4929284;28;88925;-73
2021/10/22 04:05:08;;;;;;;2.53;0.55;;;19.40;64.70;;;;;;4934137;28;88296;-72
2021/10/22 04:07:35;;;;;;;1.25;0.60;;;19.40;64.70;;;;;;4910108;28;88174;-74
2021/10/22 04:10:18;;;;;;;2.70;0.38;;;19.40;64.70;;;;;;4935555;28;87264;-73
2021/10/22 04:12:49;;;;;;;1.83;0.60;;;19.40;64.70;;;;;;4929654;28;89040;-72
2021/10/22 04:15:14;;;;;;;2.03;0.60;;;19.40;64.70;;;;;;4929185;28;88456;-73
2021/10/22 04:17:43;;;;;;;1.25;0.50;;;19.40;64.70;;;;;;4935498;28;87403;-74
2021/10/22 04:20:32;;;;;;;2.35;0.50;;;19.40;64.70;;;;;;4916506;28;87613;-74
2021/10/22 04:22:58;;;;;;;1.75;0.60;;;19.30;64.70;;;;;;4935453;28;87653;-73
2021/10/22 04:25:28;;;;;;;1.48;0.52;;;19.40;64.80;;;;;;4934356;28;87597;-72
2021/10/22 04:27:54;;;;;;;1.38;0.60;;;19.30;64.70;;;;;;4912427;28;88048;-73
2021/10/22 04:30:21;;;;;;;2.35;0.40;;;19.30;64.70;;;;;;4935810;28;87630;-73
2021/10/22 04:32:48;;;;;;;1.85;0.60;;;19.30;64.70;;;;;;4934758;28;88704;-78
2021/10/22 04:35:18;;;;;;;0.98;0.43;;;19.30;64.70;;;;;;4932690;28;87746;-73
2021/10/22 04:43:09;;;;;;;3.13;0.70;;;19.30;64.70;;;;;;4937271;28;87054;-75
2021/10/22 04:45:38;;;;;;;1.60;0.50;;;19.30;64.80;;;;;;4938139;28;87160;-72
2021/10/22 04:48:06;;;;;;;4.18;0.75;;;19.30;64.80;;;;;;4919044;28;87065;-73
2021/10/22 04:50:33;;;;;;;3.25;0.47;;;19.30;64.80;;;;;;4937234;28;88598;-74
2021/10/22 04:52:59;;;;;;;1.95;0.47;;;19.20;64.70;;;;;;4934503;28;88794;-73
2021/10/22 04:55:33;;;;;;;2.70;0.40;;;19.20;64.80;;;;;;4939439;28;87061;-73
2021/10/22 04:58:01;;;;;;;2.97;0.40;;;19.20;64.80;;;;;;4935100;28;87410;-73
2021/10/22 05:00:27;;;;;;;4.38;0.50;;;19.20;64.70;;;;;;4921139;28;89130;-73
2021/10/22 05:02:53;;;;;;;2.05;0.50;;;19.20;64.70;;;;;;4933617;28;88223;-72
2021/10/22 05:05:18;;;;;;;2.63;0.65;;;19.20;65.00;;;;;;4938022;28;87484;-73
2021/10/22 05:07:44;;;;;;;2.90;1.08;;;19.20;65.00;;;;;;4936544;28;87193;-78
2021/10/22 05:10:47;;;;;;;2.00;0.50;;;19.20;65.00;;;;;;4944118;28;86916;-75
2021/10/22 05:13:37;;;;;;;1.35;0.50;;;19.20;65.00;;;;;;4941595;28;87690;-72
2021/10/22 05:16:08;;;;;;;2.10;0.85;;;19.20;65.00;;;;;;4944020;28;87283;-75
2021/10/22 05:18:43;;;;;;;2.70;0.70;;;19.20;65.00;;;;;;4917665;28;88983;-72
2021/10/22 05:21:21;;;;;;;5.43;0.40;;;19.20;65.00;;;;;;4934347;28;87320;-73
2021/10/22 05:23:52;;;;;;;0.95;0.45;;;19.20;65.60;;;;;;4939960;28;87810;-73
2021/10/22 05:26:18;;;;;;;2.80;0.65;;;19.20;65.10;;;;;;4937449;28;88219;-73
2021/10/22 05:28:45;;;;;;;2.22;0.70;;;19.20;65.10;;;;;;4917044;28;87806;-72
2021/10/22 05:31:12;;;;;;;3.03;0.50;;;19.20;65.20;;;;;;4916961;28;86950;-73
2021/10/22 05:33:40;;;;;;;1.88;0.60;;;19.20;65.20;;;;;;4915979;28;88340;-76
2021/10/22 05:36:15;;;;;;;1.80;0.73;;;19.20;65.20;;;;;;4932458;28;87390;-72
2021/10/22 05:38:41;;;;;;;2.25;0.55;;;19.10;65.20;;;;;;4932412;28;88273;-72
2021/10/22 05:41:10;;;;;;;1.90;0.57;;;19.10;65.20;;;;;;4927691;28;87780;-71
2021/10/22 05:43:36;;;;;;;2.65;0.80;;;19.10;65.30;;;;;;4927484;28;89958;-72
2021/10/22 05:46:24;;;;;;;3.03;0.40;;;19.10;65.30;;;;;;4902656;28;89688;-72
2021/10/22 05:48:52;;;;;;;1.55;0.47;;;19.10;65.30;;;;;;4931591;28;87564;-72
2021/10/22 05:51:23;;;;;;;4.63;0.63;;;19.10;65.40;;;;;;4924566;28;87949;-72
2021/10/22 05:53:52;;;;;;;3.00;0.60;;;19.10;65.40;;;;;;4918860;28;87894;-73
2021/10/22 05:56:23;;;;;;;4.80;0.57;;;19.10;65.40;;;;;;4917438;28;88278;-72
2021/10/22 05:58:49;;;;;;;2.80;0.65;;;19.10;66.10;;;;;;4907736;28;87663;-72
2021/10/22 06:01:18;;;;;;;2.47;0.60;;;19.10;65.60;;;;;;4914486;28;86847;-72
2021/10/22 06:04:14;;;;;;;2.33;0.60;;;19.10;65.60;;;;;;4929856;28;87889;-72
2021/10/22 06:06:40;;;;;;;3.53;0.68;;;19.20;65.60;;;;;;4904652;28;87984;-73
2021/10/22 06:09:07;;;;;;;5.80;0.45;;;19.20;65.50;;;;;;4927656;28;89232;-72
2021/10/22 06:11:41;;;;;;;4.72;0.75;;;19.30;65.40;;;;;;4934608;28;87695;-72
2021/10/22 06:14:11;;;;;;;5.97;0.70;;;19.40;65.30;;;;;;4935807;28;88741;-72
2021/10/22 06:16:45;;;;;;;5.45;0.70;;;19.40;65.10;;;;;;4943711;28;87103;-73
2021/10/22 06:19:16;;;;;;;5.30;0.73;;;19.60;65.00;;;;;;4935713;28;87329;-79
2021/10/22 06:24:11;;;;;;;1.92;0.68;;;19.70;64.60;;;;;;4940597;28;87557;-74
2021/10/22 06:26:42;;;;;;;3.17;0.52;;;19.80;64.40;;;;;;4941717;28;86320;-74
2021/10/22 06:29:16;;;;;;;3.63;0.60;;;19.90;64.40;;;;;;4932517;28;87417;-73
2021/10/22 06:31:41;;;;;;;2.40;0.80;;;20.00;64.20;;;;;;4936959;28;87875;-73
2021/10/22 06:34:10;;;;;;;3.10;0.40;;;20.00;64.10;;;;;;4934207;28;88656;-73
2021/10/22 06:36:36;;;;;;;5.63;1.00;;;20.10;64.00;;;;;;4934987;28;88374;-73
2021/10/22 06:39:03;;;;;;;2.67;0.60;;;20.10;63.80;;;;;;4932548;28;87113;-73
2021/10/22 06:41:29;;;;;;;3.03;0.75;;;20.10;63.50;;;;;;4943299;28;88043;-73
2021/10/22 06:43:55;;;;;;;7.90;0.77;;;20.10;63.20;;;;;;4936523;28;87654;-76
2021/10/22 06:46:21;;;;;;;4.43;1.05;;;20.10;62.90;;;;;;4938689;28;87787;-73
2021/10/22 06:48:47;;;;;;;4.72;0.70;;;20.10;62.60;;;;;;4934213;28;87788;-73
2021/10/22 06:51:16;;;;;;;6.65;0.82;;;20.10;62.30;;;;;;4931579;28;87568;-72
2021/10/22 06:53:44;;;;;;;5.80;0.95;;;20.10;62.10;;;;;;4936639;28;88118;-73
2021/10/22 06:56:09;;;;;;;5.35;0.77;;;20.10;61.70;;;;;;4910250;28;89465;-73
2021/10/22 06:58:35;;;;;;;5.15;1.08;;;20.10;61.30;;;;;;4929602;28;88380;-72
2021/10/22 07:01:02;;;;;;;4.70;1.38;;;20.10;60.80;;;;;;4932972;28;87025;-73
2021/10/22 07:03:37;;;;;;;8.70;2.08;;;20.10;60.40;;;;;;4930915;28;87526;-73
2021/10/22 07:07:14;;;;;;;10.73;1.65;;;20.00;60.10;;;;;;4931499;28;87435;-73
2021/10/22 07:08:48;;;;;;;11.90;2.28;;;20.10;60.00;;;;;;4936472;28;87288;-76
2021/10/22 07:11:18;;;;;;;13.48;3.10;;;20.10;59.90;;;;;;4931124;28;88465;-76
2021/10/22 07:13:49;;;;;;;17.90;3.17;;;20.10;60.00;;;;;;4918067;28;88090;-76
2021/10/22 07:16:18;;;;;;;12.10;3.17;;;20.10;60.10;;;;;;4939072;28;88672;-74
2021/10/22 07:18:45;;;;;;;17.70;3.70;;;20.10;60.20;;;;;;4932169;28;87591;-71
2021/10/22 07:21:16;;;;;;;12.35;3.50;;;20.10;60.20;;;;;;4942146;28;87161;-77
2021/10/22 07:23:48;;;;;;;17.65;3.42;;;20.10;60.20;;;;;;4919981;28;90378;-74
2021/10/22 07:26:17;;;;;;;13.52;4.00;;;20.20;60.20;;;;;;4937601;28;89358;-74
2021/10/22 07:28:43;;;;;;;17.08;4.45;;;20.20;60.20;;;;;;4935210;28;87172;-74
2021/10/22 07:31:15;;;;;;;18.83;4.10;;;20.20;60.30;;;;;;4933158;28;88739;-75
2021/10/22 07:33:42;;;;;;;18.70;3.80;;;20.30;60.30;;;;;;4939675;28;88195;-75
2021/10/22 07:36:30;;;;;;;14.48;3.50;;;20.20;60.80;;;;;;4935906;28;88485;-74
2021/10/22 07:39:00;;;;;;;13.38;3.63;;;20.20;60.40;;;;;;4937481;28;87257;-74
2021/10/22 07:41:26;;;;;;;16.38;3.65;;;20.20;60.40;;;;;;4922914;28;86526;-74
2021/10/22 07:43:54;;;;;;;14.52;3.63;;;20.20;60.40;;;;;;4930057;28;87701;-74
2021/10/22 07:46:20;;;;;;;18.00;3.60;;;20.20;60.40;;;;;;4928904;28;87685;-74
2021/10/22 07:48:46;;;;;;;15.95;3.47;;;20.20;60.40;;;;;;4925701;28;87922;-75
2021/10/22 07:51:12;;;;;;;21.25;4.35;;;20.20;60.40;;;;;;4927412;28;87681;-75
2021/10/22 07:53:53;;;;;;;18.02;3.60;;;20.30;61.10;;;;;;4925728;28;88814;-75
2021/10/22 07:56:20;;;;;;;17.27;4.07;;;20.30;60.60;;;;;;4922284;28;87233;-75
2021/10/22 07:58:49;;;;;;;16.63;3.50;;;20.30;60.60;;;;;;4924826;28;87527;-75
2021/10/22 08:01:23;;;;;;;13.98;3.88;;;20.20;60.60;;;;;;4922947;28;89338;-75
2021/10/22 08:03:55;;;;;;;14.07;3.38;;;20.30;60.60;;;;;;4924909;28;87701;-74
2021/10/22 08:06:21;;;;;;;20.63;3.95;;;20.20;61.00;;;;;;4920718;28;87455;-75
2021/10/22 08:08:47;;;;;;;14.07;3.95;;;20.30;60.50;;;;;;4915806;28;87779;-75
2021/10/22 08:11:19;;;;;;;16.77;3.70;;;20.30;60.40;;;;;;4916737;28;87694;-74
2021/10/22 08:13:44;;;;;;;17.75;3.90;;;20.30;60.30;;;;;;4918450;28;88897;-76
2021/10/22 08:16:10;;;;;;;11.90;3.47;;;20.20;60.20;;;;;;4919438;28;88413;-77
2021/10/22 08:18:38;;;;;;;11.25;3.13;;;20.30;60.30;;;;;;4920074;28;87932;-76
2021/10/22 08:21:17;;;;;;;13.63;3.30;;;20.20;60.20;;;;;;4902630;28;89933;-76
2021/10/22 08:23:45;;;;;;;13.13;3.15;;;20.30;60.30;;;;;;4921040;28;88203;-76
2021/10/22 08:26:11;;;;;;;13.55;3.20;;;20.20;60.20;;;;;;4921358;28;88723;-76
2021/10/22 08:28:36;;;;;;;14.20;3.65;;;20.30;60.20;;;;;;4920965;28;87784;-76
2021/10/22 08:31:02;;;;;;;12.38;3.20;;;20.30;60.20;;;;;;4922965;28;87054;-76
2021/10/22 08:33:29;;;;;;;11.23;2.90;;;20.20;60.20;;;;;;4923453;28;87819;-76
2021/10/22 08:35:55;;;;;;;10.73;3.05;;;20.20;60.10;;;;;;4924212;28;87617;-76
2021/10/22 08:38:36;;;;;;;13.32;3.03;;;20.30;60.20;;;;;;4905940;28;88205;-76
2021/10/22 08:41:07;;;;;;;10.93;2.78;;;20.20;60.00;;;;;;4925224;28;87253;-78
2021/10/22 08:43:33;;;;;;;11.32;2.42;;;20.20;60.00;;;;;;4920889;28;88761;-77
2021/10/22 08:46:00;;;;;;;12.88;2.80;;;20.30;60.00;;;;;;4924099;28;88029;-76
2021/10/22 08:48:28;;;;;;;8.90;2.75;;;20.30;60.00;;;;;;4930971;28;87461;-77
2021/10/22 08:51:08;;;;;;;10.27;3.15;;;20.30;60.20;;;;;;4939289;28;87195;-77
2021/10/22 08:54:03;;;;;;;10.10;2.95;;;20.30;61.20;;;;;;4932549;28;87841;-76
2021/10/22 08:56:42;;;;;;;8.15;2.72;;;20.30;60.70;;;;;;4863966;29;88240;-74
2021/10/22 08:59:09;;;;;;;7.85;2.40;;;20.20;60.70;;;;;;4862263;29;87428;-75
2021/10/22 09:02:16;;;;;;;13.05;2.47;;;20.20;60.70;;;;;;4867537;29;87543;-76
2021/10/22 09:04:44;;;;;;;6.45;1.85;;;20.20;60.60;;;;;;4865979;29;88950;-76
2021/10/22 09:07:19;;;;;;;10.40;2.15;;;20.20;60.50;;;;;;4867509;29;89797;-76
2021/10/22 09:09:46;;;;;;;10.15;2.80;;;20.20;60.50;;;;;;4880732;28;88883;-75
2021/10/22 09:12:13;;;;;;;10.80;2.67;;;20.20;60.50;;;;;;4928905;28;88011;-75
2021/10/22 09:14:57;;;;;;;9.00;2.40;;;20.10;60.30;;;;;;4928908;28;87633;-76
2021/10/22 09:17:36;;;;;;;7.93;2.30;;;20.10;60.30;;;;;;4929531;28;87875;-75
2021/10/22 09:20:03;;;;;;;11.95;2.08;;;20.10;60.20;;;;;;4924636;28;87255;-74
2021/10/22 09:22:33;;;;;;;6.45;2.33;;;20.10;60.20;;;;;;4929509;28;89545;-75
2021/10/22 09:25:04;;;;;;;9.00;2.28;;;20.10;60.10;;;;;;4931731;28;89081;-75
2021/10/22 09:27:47;;;;;;;6.85;2.30;;;20.10;60.10;;;;;;4928463;28;87752;-75
2021/10/22 09:30:37;;;;;;;6.30;1.77;;;20.10;60.10;;;;;;4928223;28;88523;-75
2021/10/22 09:33:14;;;;;;;7.85;2.10;;;20.10;60.00;;;;;;4912583;28;87428;-75
2021/10/22 09:35:54;;;;;;;8.48;2.00;;;20.10;60.00;;;;;;4929167;28;89515;-75
2021/10/22 09:38:28;;;;;;;8.25;1.90;;;20.10;60.00;;;;;;4925329;28;88081;-75
2021/10/22 09:41:04;;;;;;;5.93;2.00;;;20.10;60.00;;;;;;4923518;28;88529;-75
2021/10/22 09:43:35;;;;;;;9.65;2.10;;;20.10;60.00;;;;;;4922628;28;87555;-75
2021/10/22 09:46:18;;;;;;;5.53;2.05;;;20.10;60.10;;;;;;4924082;28;88416;-75
2021/10/22 09:48:49;;;;;;;9.13;2.13;;;20.10;60.10;;;;;;4922906;28;88486;-75
2021/10/22 09:51:33;;;;;;;5.43;1.98;;;20.10;60.10;;;;;;4923475;28;87033;-75
2021/10/22 09:54:11;;;;;;;5.60;1.77;;;20.10;60.60;;;;;;4921195;28;88136;-75
2021/10/22 09:56:50;;;;;;;7.45;1.95;;;20.10;60.00;;;;;;4923753;28;91164;-76
2021/10/22 09:59:27;;;;;;;5.00;1.52;;;20.10;60.40;;;;;;4908409;28;89602;-75
2021/10/22 10:01:59;;;;;;;7.53;1.98;;;20.10;59.80;;;;;;4923161;28;87683;-75
2021/10/22 10:04:36;;;;;;;4.45;1.50;;;20.10;59.70;;;;;;4924729;28;87279;-75
2021/10/22 10:07:08;;;;;;;5.82;1.63;;;20.20;59.70;;;;;;4922957;28;88200;-75
2021/10/22 10:09:38;;;;;;;3.45;1.17;;;20.20;59.60;;;;;;4927546;28;87610;-75
2021/10/22 10:12:06;;;;;;;6.70;1.58;;;20.20;59.60;;;;;;4925504;28;87043;-75
2021/10/22 10:14:34;;;;;;;6.70;1.80;;;20.20;59.50;;;;;;4908960;28;89769;-76
2021/10/22 10:17:04;;;;;;;7.40;1.65;;;20.20;59.40;;;;;;4906533;28;90385;-75
2021/10/22 10:19:49;;;;;;;5.40;1.95;;;20.30;59.40;;;;;;4904837;28;89088;-76
2021/10/22 10:22:23;;;;;;;4.32;1.58;;;20.30;59.80;;;;;;4915011;28;88399;-75
2021/10/22 10:25:01;;;;;;;8.68;1.35;;;20.30;59.30;;;;;;4915075;28;87281;-76
2021/10/22 10:27:27;;;;;;;8.45;1.55;;;20.20;59.20;;;;;;4914693;28;88619;-75
2021/10/22 10:30:00;;;;;;;6.38;1.63;;;20.20;59.20;;;;;;4901587;28;88716;-74
2021/10/22 10:32:33;;;;;;;3.00;1.20;;;20.20;59.20;;;;;;4934341;28;87097;-76
2021/10/22 10:35:12;;;;;;;5.47;1.50;;;20.20;59.40;;;;;;4936411;28;87394;-76
2021/10/22 10:37:51;;;;;;;9.07;1.73;;;20.20;59.40;;;;;;4938747;28;88995;-76
2021/10/22 10:40:33;;;;;;;5.78;1.15;;;20.20;59.40;;;;;;4927782;28;86578;-77
2021/10/22 10:43:18;;;;;;;6.93;1.30;;;20.20;59.30;;;;;;4935511;28;88079;-79
2021/10/22 10:45:59;;;;;;;5.45;1.63;;;20.20;59.20;;;;;;4936302;28;89969;-76
2021/10/22 10:48:41;;;;;;;5.22;1.98;;;20.20;59.10;;;;;;4938468;28;88754;-77
2021/10/22 10:51:09;;;;;;;4.30;1.63;;;20.20;59.00;;;;;;4937553;28;88890;-75
2021/10/22 10:53:42;;;;;;;5.20;1.45;;;20.30;58.90;;;;;;4940418;28;87314;-77
2021/10/22 10:56:44;;;;;;;3.07;1.13;;;20.20;58.80;;;;;;4939064;28;87563;-75
2021/10/22 10:59:43;;;;;;;3.78;1.50;;;20.30;58.80;;;;;;4936691;28;87013;-76
2021/10/22 11:02:15;;;;;;;3.92;1.25;;;20.30;58.70;;;;;;4922434;28;89894;-76
2021/10/22 11:04:51;;;;;;;5.35;1.52;;;20.30;58.60;;;;;;4935499;28;87357;-76
2021/10/22 11:07:36;;;;;;;5.82;1.35;;;20.30;58.60;;;;;;4938471;28;86379;-75
2021/10/22 11:10:18;;;;;;;6.65;1.80;;;20.30;58.60;;;;;;4934165;28;87752;-77
2021/10/22 11:13:18;;;;;;;4.57;1.55;;;20.30;58.50;;;;;;4926520;28;87178;-76
2021/10/22 11:15:51;;;;;;;5.28;1.38;;;20.30;58.40;;;;;;4937235;28;88087;-76
2021/10/22 11:18:34;;;;;;;7.45;1.67;;;20.30;58.40;;;;;;4940835;28;87162;-77
2021/10/22 11:21:04;;;;;;;3.88;1.17;;;20.30;58.40;;;;;;4937535;28;87205;-78
2021/10/22 11:23:40;;;;;;;4.35;1.52;;;20.30;58.30;;;;;;4940969;28;90185;-77
2021/10/22 11:26:19;;;;;;;6.00;1.63;;;20.30;58.50;;;;;;4937127;28;87055;-74
2021/10/22 11:29:08;;;;;;;4.63;1.48;;;20.30;58.40;;;;;;4936299;28;87169;-74
2021/10/22 11:31:59;;;;;;;5.22;1.70;;;20.30;58.30;;;;;;4921306;28;88634;-74
2021/10/22 11:34:31;;;;;;;6.03;1.38;;;20.40;58.10;;;;;;4936585;28;90549;-78
2021/10/22 11:37:04;;;;;;;6.57;1.10;;;20.40;57.80;;;;;;4923008;28;87242;-75
2021/10/22 11:39:52;;;;;;;5.65;1.30;;;20.40;57.70;;;;;;4867703;28;87329;-74
2021/10/22 11:42:38;;;;;;;5.32;1.27;;;20.40;57.60;;;;;;4930863;28;90717;-74
2021/10/22 11:45:19;;;;;;;4.13;1.30;;;20.40;57.50;;;;;;4949117;28;88393;-73
2021/10/22 11:47:55;;;;;;;3.78;1.60;;;20.40;57.30;;;;;;4925199;28;87752;-73
2021/10/22 11:50:38;;;;;;;5.10;1.10;;;20.40;57.20;;;;;;4951021;28;86728;-73
2021/10/22 11:53:33;;;;;;;;;;;;;;;;;;;;;
2021/10/22 11:56:09;;;;;;;5.95;1.40;;;20.40;56.80;;;;;;4923298;28;114583;-73
2021/10/22 11:58:45;;;;;;;5.22;1.10;;;20.50;56.70;;;;;;4955482;28;86622;-73
2021/10/22 12:01:42;;;;;;;4.28;0.90;;;20.50;56.60;;;;;;4904248;28;86003;-74
2021/10/22 12:04:27;;;;;;;3.97;1.00;;;20.50;56.50;;;;;;4944701;28;88049;-73
2021/10/22 12:07:26;;;;;;;2.97;1.08;;;20.50;56.40;;;;;;4944922;28;87834;-74
2021/10/22 12:09:56;;;;;;;2.42;0.88;;;20.50;56.40;;;;;;4949750;28;88253;-76
2021/10/22 12:12:53;;;;;;;4.97;0.93;;;20.50;56.40;;;;;;4953040;28;87754;-78
2021/10/22 12:15:42;;;;;;;6.82;1.48;;;20.50;56.40;;;;;;4936906;28;86831;-75
2021/10/22 12:18:08;;;;;;;4.15;0.88;;;20.50;56.30;;;;;;4950083;28;87211;-80
2021/10/22 12:20:35;;;;;;;3.60;1.00;;;20.60;56.20;;;;;;4959763;23;88140;-67
2021/10/22 12:23:02;;;;;;;4.65;0.98;;;20.60;56.10;;;;;;4932051;28;89895;-66
2021/10/22 12:25:31;;;;;;;4.78;0.90;;;20.60;56.30;;;;;;4948677;28;88267;-68
2021/10/22 12:27:59;;;;;;;3.90;1.05;;;20.60;56.30;;;;;;4932380;28;91321;-65
2021/10/22 12:30:34;;;;;;;21.02;5.85;;;20.60;56.30;;;;;;4951478;28;87642;-64
2021/10/22 12:33:03;;;;;;;9.25;3.25;;;20.70;56.30;;;;;;4950366;28;87963;-67
2021/10/22 12:35:36;;;;;;;9.85;2.70;;;20.70;56.00;;;;;;4949553;28;89151;-67
2021/10/22 12:38:09;;;;;;;8.07;2.58;;;20.70;55.50;;;;;;4933057;28;92176;-67
2021/10/22 12:40:41;;;;;;;9.20;1.98;;;20.70;55.40;;;;;;4950962;28;87901;-71
2021/10/22 12:43:17;;;;;;;5.88;1.70;;;20.70;55.40;;;;;;4951929;28;87355;-72
2021/10/22 12:45:48;;;;;;;5.53;1.88;;;20.70;55.40;;;;;;4952438;28;88358;-73
2021/10/22 12:48:17;;;;;;;7.55;1.42;;;20.70;55.50;;;;;;4933058;28;91549;-65
2021/10/22 12:50:43;;;;;;;6.28;1.80;;;20.70;56.10;;;;;;4950711;28;88470;-73
2021/10/22 12:53:13;;;;;;;4.38;1.90;;;20.70;55.60;;;;;;4950641;28;87399;-71
2021/10/22 12:55:41;;;;;;;6.65;1.92;;;20.70;55.60;;;;;;4951093;28;88148;-71
2021/10/22 12:58:21;;;;;;;5.75;1.75;;;20.70;55.50;;;;;;4950544;28;91080;-72
2021/10/22 13:01:07;;;;;;;5.75;1.63;;;20.80;55.60;;;;;;4953183;28;88702;-68
2021/10/22 13:03:34;;;;;;;4.72;1.50;;;20.80;55.50;;;;;;4942415;28;88459;-66
2021/10/22 13:06:41;;;;;;;6.53;1.77;;;20.90;55.50;;;;;;4934118;28;89648;-69
2021/10/22 13:22:31;;;;;;;9.70;1.60;;;21.00;55.50;;;;;;4950534;28;87725;-73
2021/10/22 13:24:57;;;;;;;4.95;1.95;;;21.00;55.40;;;;;;4951848;28;88064;-68
2021/10/22 13:27:24;;;;;;;2.85;1.33;;;21.10;55.40;;;;;;4937599;28;88964;-66
2021/10/22 13:29:57;;;;;;;5.80;1.50;;;21.00;55.40;;;;;;4950072;28;88853;-65
2021/10/22 13:32:24;;;;;;;5.35;1.45;;;21.10;55.40;;;;;;4928200;28;87675;-67